sensor_id;sensor_type;location;lat;lon;timestamp;pressure;altitude;pressure_sealevel;temperature;humidity
28797;BME280;24974;54.444;18.560;2022-10-16T05:10:27;101017.78;;;16.40;76.56
28797;BME280;24974;54.444;18.560;2022-10-16T05:12:58;101020.09;;;16.17;77.10
28797;BME280;24974;54.444;18.560;2022-10-16T05:15:29;101019.88;;;16.43;76.23
28797;BME280;24974;54.444;18.560;2022-10-16T05:18:00;101021.81;;;16.63;75.49
28797;BME280;24974;54.444;18.560;2022-10-16T05:20:31;101022.25;;;16.53;75.20
28797;BME280;24974;54.444;18.560;2022-10-16T05:23:01;101031.84;;;16.35;76.34
28797;BME280;24974;54.444;18.560;2022-10-16T05:25:32;101035.84;;;16.25;76.50
28797;BME280;24974;54.444;18.560;2022-10-16T05:28:03;101026.28;;;16.56;75.63
28797;BME280;24974;54.444;18.560;2022-10-16T05:30:34;101031.41;;;17.11;73.29
28797;BME280;24974;54.444;18.560;2022-10-16T05:33:07;101030.00;;;16.93;74.15
28797;BME280;24974;54.444;18.560;2022-10-16T05:35:38;101037.44;;;17.01;73.86
28797;BME280;24974;54.444;18.560;2022-10-16T05:38:09;101037.19;;;16.94;73.83
28797;BME280;24974;54.444;18.560;2022-10-16T05:40:40;101033.03;;;17.24;73.23
28797;BME280;24974;54.444;18.560;2022-10-16T05:43:10;101031.63;;;17.06;73.72
28797;BME280;24974;54.444;18.560;2022-10-16T05:45:41;101033.69;;;16.85;74.36
28797;BME280;24974;54.444;18.560;2022-10-16T05:48:12;101041.78;;;16.90;74.11
28797;BME280;24974;54.444;18.560;2022-10-16T05:50:43;101038.66;;;16.58;75.20
28797;BME280;24974;54.444;18.560;2022-10-16T05:53:14;101038.75;;;16.70;74.78
28797;BME280;24974;54.444;18.560;2022-10-16T05:55:52;101054.50;;;16.78;74.56
28797;BME280;24974;54.444;18.560;2022-10-16T05:58:23;101054.75;;;16.86;74.40
28797;BME280;24974;54.444;18.560;2022-10-16T06:01:00;101055.00;;;16.93;74.00
28797;BME280;24974;54.444;18.560;2022-10-16T06:03:31;101056.66;;;17.18;73.20
28797;BME280;24974;54.444;18.560;2022-10-16T06:06:16;101056.00;;;16.55;75.17
28797;BME280;24974;54.444;18.560;2022-10-16T06:08:48;101075.69;;;16.95;73.87
28797;BME280;24974;54.444;18.560;2022-10-16T06:11:25;101080.03;;;17.17;73.61
28797;BME280;24974;54.444;18.560;2022-10-16T06:13:58;101088.78;;;16.95;74.74
28797;BME280;24974;54.444;18.560;2022-10-16T06:16:30;101094.34;;;16.74;75.23
28797;BME280;24974;54.444;18.560;2022-10-16T06:19:02;101096.22;;;16.70;75.71
28797;BME280;24974;54.444;18.560;2022-10-16T06:21:36;101099.00;;;16.82;75.46
28797;BME280;24974;54.444;18.560;2022-10-16T06:24:08;101103.78;;;16.61;76.18
28797;BME280;24974;54.444;18.560;2022-10-16T06:26:39;101110.00;;;16.78;75.80
28797;BME280;24974;54.444;18.560;2022-10-16T06:29:09;101113.22;;;16.60;76.48
28797;BME280;24974;54.444;18.560;2022-10-16T06:31:40;101112.84;;;16.70;76.50
28797;BME280;24974;54.444;18.560;2022-10-16T06:34:11;101130.78;;;16.72;76.95
28797;BME280;24974;54.444;18.560;2022-10-16T06:36:42;101123.88;;;16.37;77.71
28797;BME280;24974;54.444;18.560;2022-10-16T06:39:14;101090.47;;;16.87;75.84
28797;BME280;24974;54.444;18.560;2022-10-16T06:41:44;101108.16;;;16.62;76.71
28797;BME280;24974;54.444;18.560;2022-10-16T06:44:21;101115.06;;;16.35;78.01
28797;BME280;24974;54.444;18.560;2022-10-16T06:46:52;101117.50;;;16.15;78.60
28797;BME280;24974;54.444;18.560;2022-10-16T06:49:23;101126.63;;;15.86;79.59
28797;BME280;24974;54.444;18.560;2022-10-16T06:51:54;101116.97;;;16.22;78.14
28797;BME280;24974;54.444;18.560;2022-10-16T06:54:25;101098.56;;;16.38;77.73
28797;BME280;24974;54.444;18.560;2022-10-16T06:56:56;101123.22;;;15.89;79.31
28797;BME280;24974;54.444;18.560;2022-10-16T06:59:27;101118.38;;;16.07;78.98
28797;BME280;24974;54.444;18.560;2022-10-16T07:01:58;101123.78;;;16.25;78.45
28797;BME280;24974;54.444;18.560;2022-10-16T07:04:29;101128.19;;;16.26;78.34
28797;BME280;24974;54.444;18.560;2022-10-16T07:07:00;101124.47;;;16.42;77.86
28797;BME280;24974;54.444;18.560;2022-10-16T07:09:31;101127.72;;;16.23;78.42
28797;BME280;24974;54.444;18.560;2022-10-16T07:12:02;101119.81;;;16.13;79.16
28797;BME280;24974;54.444;18.560;2022-10-16T07:14:33;101093.03;;;16.38;77.93
28797;BME280;24974;54.444;18.560;2022-10-16T07:17:04;101106.00;;;16.26;78.37
28797;BME280;24974;54.444;18.560;2022-10-16T07:19:35;101118.31;;;16.16;79.13
28797;BME280;24974;54.444;18.560;2022-10-16T07:22:05;101129.16;;;16.30;78.27
28797;BME280;24974;54.444;18.560;2022-10-16T07:24:36;101119.72;;;16.43;78.14
28797;BME280;24974;54.444;18.560;2022-10-16T07:27:07;101115.75;;;16.53;77.18
28797;BME280;24974;54.444;18.560;2022-10-16T07:29:38;101121.50;;;16.47;77.72
28797;BME280;24974;54.444;18.560;2022-10-16T07:32:09;101119.25;;;16.41;77.74
28797;BME280;24974;54.444;18.560;2022-10-16T07:34:40;101108.69;;;16.76;76.41
28797;BME280;24974;54.444;18.560;2022-10-16T07:37:11;101117.63;;;16.82;76.77
28797;BME280;24974;54.444;18.560;2022-10-16T07:39:41;101128.00;;;16.72;76.79
28797;BME280;24974;54.444;18.560;2022-10-16T07:42:12;101142.00;;;16.55;77.71
28797;BME280;24974;54.444;18.560;2022-10-16T07:44:43;101139.50;;;16.41;78.36
28797;BME280;24974;54.444;18.560;2022-10-16T07:47:14;101146.06;;;16.58;77.59
28797;BME280;24974;54.444;18.560;2022-10-16T07:49:44;101137.97;;;16.53;77.52
28797;BME280;24974;54.444;18.560;2022-10-16T07:52:15;101150.19;;;16.51;77.96
28797;BME280;24974;54.444;18.560;2022-10-16T07:54:46;101148.28;;;16.43;77.84
28797;BME280;24974;54.444;18.560;2022-10-16T07:57:17;101150.69;;;17.08;76.44
28797;BME280;24974;54.444;18.560;2022-10-16T07:59:50;101143.16;;;17.08;76.43
28797;BME280;24974;54.444;18.560;2022-10-16T08:02:21;101153.44;;;16.95;76.66
28797;BME280;24974;54.444;18.560;2022-10-16T08:04:51;101154.59;;;16.94;76.44
28797;BME280;24974;54.444;18.560;2022-10-16T08:07:22;101170.09;;;17.28;76.10
28797;BME280;24974;54.444;18.560;2022-10-16T08:09:53;101178.25;;;17.13;75.79
28797;BME280;24974;54.444;18.560;2022-10-16T08:12:25;101174.59;;;17.78;73.60
28797;BME280;24974;54.444;18.560;2022-10-16T08:14:56;101188.66;;;16.83;76.85
28797;BME280;24974;54.444;18.560;2022-10-16T08:17:27;101199.81;;;16.95;76.54
28797;BME280;24974;54.444;18.560;2022-10-16T08:19:58;101191.16;;;17.29;75.44
28797;BME280;24974;54.444;18.560;2022-10-16T08:22:28;101190.25;;;17.83;73.46
28797;BME280;24974;54.444;18.560;2022-10-16T08:24:59;101202.41;;;17.78;73.19
28797;BME280;24974;54.444;18.560;2022-10-16T08:27:32;101195.41;;;17.60;74.30
28797;BME280;24974;54.444;18.560;2022-10-16T08:30:03;101195.34;;;17.93;73.04
28797;BME280;24974;54.444;18.560;2022-10-16T08:32:34;101211.47;;;17.54;74.50
28797;BME280;24974;54.444;18.560;2022-10-16T08:35:05;101205.56;;;17.11;76.31
28797;BME280;24974;54.444;18.560;2022-10-16T08:37:36;101200.13;;;17.47;75.12
28797;BME280;24974;54.444;18.560;2022-10-16T08:40:25;101207.69;;;17.59;74.57
28797;BME280;24974;54.444;18.560;2022-10-16T08:43:21;101210.66;;;17.54;74.73
28797;BME280;24974;54.444;18.560;2022-10-16T08:46:21;101207.88;;;17.42;75.49
28797;BME280;24974;54.444;18.560;2022-10-16T08:48:57;101214.81;;;17.48;75.50
28797;BME280;24974;54.444;18.560;2022-10-16T08:51:32;101207.72;;;17.26;75.81
28797;BME280;24974;54.444;18.560;2022-10-16T08:54:06;101209.50;;;17.55;74.75
28797;BME280;24974;54.444;18.560;2022-10-16T08:56:40;101211.94;;;17.44;74.77
28797;BME280;24974;54.444;18.560;2022-10-16T08:59:11;101221.00;;;17.20;75.56
28797;BME280;24974;54.444;18.560;2022-10-16T09:01:46;101218.75;;;17.47;75.31
28797;BME280;24974;54.444;18.560;2022-10-16T09:07:09;101218.91;;;17.62;74.79
28797;BME280;24974;54.444;18.560;2022-10-16T09:15:12;101223.75;;;18.35;72.34
28797;BME280;24974;54.444;18.560;2022-10-16T09:17:53;101222.56;;;17.75;74.18
28797;BME280;24974;54.444;18.560;2022-10-16T09:20:57;101221.44;;;18.37;72.23
28797;BME280;24974;54.444;18.560;2022-10-16T09:23:32;101223.50;;;18.04;73.09
28797;BME280;24974;54.444;18.560;2022-10-16T09:26:05;101227.56;;;17.94;73.45
28797;BME280;24974;54.444;18.560;2022-10-16T09:28:40;101229.31;;;18.11;72.54
28797;BME280;24974;54.444;18.560;2022-10-16T09:31:19;101228.94;;;17.76;73.78
28797;BME280;24974;54.444;18.560;2022-10-16T09:33:54;101233.25;;;17.52;74.54
28797;BME280;24974;54.444;18.560;2022-10-16T09:36:27;101237.66;;;17.99;73.74
28797;BME280;24974;54.444;18.560;2022-10-16T09:39:04;101239.75;;;18.14;73.40
28797;BME280;24974;54.444;18.560;2022-10-16T09:41:41;101235.38;;;18.13;72.93
28797;BME280;24974;54.444;18.560;2022-10-16T09:44:26;101236.00;;;17.85;73.36
28797;BME280;24974;54.444;18.560;2022-10-16T09:47:11;101254.06;;;17.46;74.95
28797;BME280;24974;54.444;18.560;2022-10-16T09:50:05;101242.69;;;17.72;74.39
28797;BME280;24974;54.444;18.560;2022-10-16T09:52:45;101255.03;;;17.83;73.74
28797;BME280;24974;54.444;18.560;2022-10-16T09:55:18;101251.59;;;18.23;72.47
28797;BME280;24974;54.444;18.560;2022-10-16T09:57:53;101258.34;;;17.77;73.54
28797;BME280;24974;54.444;18.560;2022-10-16T10:00:25;101258.56;;;17.72;73.88
28797;BME280;24974;54.444;18.560;2022-10-16T10:02:56;101263.31;;;17.71;73.93
28797;BME280;24974;54.444;18.560;2022-10-16T10:05:28;101252.09;;;17.80;73.57
28797;BME280;24974;54.444;18.560;2022-10-16T10:08:01;101249.09;;;17.85;73.16
28797;BME280;24974;54.444;18.560;2022-10-16T10:10:42;101254.66;;;17.73;74.52
28797;BME280;24974;54.444;18.560;2022-10-16T10:13:21;101256.28;;;17.86;74.00
28797;BME280;24974;54.444;18.560;2022-10-16T10:15:53;101266.41;;;18.39;72.27
28797;BME280;24974;54.444;18.560;2022-10-16T10:18:24;101277.00;;;17.76;73.51
28797;BME280;24974;54.444;18.560;2022-10-16T10:21:00;101269.53;;;17.89;73.61
28797;BME280;24974;54.444;18.560;2022-10-16T10:23:32;101274.59;;;17.87;73.54
28797;BME280;24974;54.444;18.560;2022-10-16T10:26:07;101276.84;;;18.06;73.13
28797;BME280;24974;54.444;18.560;2022-10-16T10:28:53;101264.91;;;18.42;71.58
28797;BME280;24974;54.444;18.560;2022-10-16T10:36:51;101280.03;;;17.83;74.17
28797;BME280;24974;54.444;18.560;2022-10-16T10:39:41;101292.00;;;18.08;73.26
28797;BME280;24974;54.444;18.560;2022-10-16T10:45:26;101291.78;;;18.01;73.53
28797;BME280;24974;54.444;18.560;2022-10-16T10:51:12;101301.13;;;17.84;74.10
28797;BME280;24974;54.444;18.560;2022-10-16T10:57:06;101284.94;;;18.11;73.49
28797;BME280;24974;54.444;18.560;2022-10-16T11:00:03;101295.75;;;18.73;70.96
28797;BME280;24974;54.444;18.560;2022-10-16T11:05:42;101293.69;;;18.70;71.03
28797;BME280;24974;54.444;18.560;2022-10-16T11:08:18;101281.19;;;19.05;69.96
28797;BME280;24974;54.444;18.560;2022-10-16T11:10:57;101277.69;;;20.23;66.21
28797;BME280;24974;54.444;18.560;2022-10-16T11:13:34;101279.13;;;20.33;65.15
28797;BME280;24974;54.444;18.560;2022-10-16T11:16:28;101279.22;;;20.21;66.96
28797;BME280;24974;54.444;18.560;2022-10-16T11:25:06;101288.50;;;20.25;65.08
28797;BME280;24974;54.444;18.560;2022-10-16T11:41:45;101284.16;;;20.11;66.01
28797;BME280;24974;54.444;18.560;2022-10-16T11:47:30;101291.09;;;19.86;65.62
28797;BME280;24974;54.444;18.560;2022-10-16T11:50:25;101290.03;;;20.38;64.55
28797;BME280;24974;54.444;18.560;2022-10-16T11:53:07;101289.31;;;20.57;63.69
28797;BME280;24974;54.444;18.560;2022-10-16T11:55:44;101281.00;;;21.50;60.55
28797;BME280;24974;54.444;18.560;2022-10-16T11:58:33;101295.69;;;21.47;60.94
28797;BME280;24974;54.444;18.560;2022-10-16T17:47:50;101608.47;;;16.97;68.73
28797;BME280;24974;54.444;18.560;2022-10-16T17:50:20;101608.97;;;16.90;69.02
28797;BME280;24974;54.444;18.560;2022-10-16T17:52:51;101617.31;;;16.64;70.53
28797;BME280;24974;54.444;18.560;2022-10-16T17:55:22;101626.31;;;16.70;69.94
28797;BME280;24974;54.444;18.560;2022-10-16T17:58:05;101626.78;;;16.55;70.37
28797;BME280;24974;54.444;18.560;2022-10-16T18:00:42;101626.44;;;16.65;69.91
28797;BME280;24974;54.444;18.560;2022-10-16T18:03:18;101639.84;;;16.37;71.50
28797;BME280;24974;54.444;18.560;2022-10-16T18:05:56;101633.97;;;16.64;70.71
28797;BME280;24974;54.444;18.560;2022-10-16T18:08:32;101628.91;;;16.58;70.45
28797;BME280;24974;54.444;18.560;2022-10-16T18:11:15;101638.50;;;16.51;72.12
28797;BME280;24974;54.444;18.560;2022-10-16T18:13:56;101639.47;;;16.99;70.64
28797;BME280;24974;54.444;18.560;2022-10-16T18:16:31;101644.13;;;16.77;71.48
28797;BME280;24974;54.444;18.560;2022-10-16T18:19:02;101650.50;;;16.69;72.00
28797;BME280;24974;54.444;18.560;2022-10-16T18:21:33;101659.94;;;16.77;71.52
28797;BME280;24974;54.444;18.560;2022-10-16T18:24:04;101658.94;;;16.90;71.20
28797;BME280;24974;54.444;18.560;2022-10-16T18:26:35;101655.97;;;17.13;70.67
28797;BME280;24974;54.444;18.560;2022-10-16T18:29:06;101663.00;;;17.10;70.27
28797;BME280;24974;54.444;18.560;2022-10-16T18:31:38;101662.19;;;17.10;70.35
28797;BME280;24974;54.444;18.560;2022-10-16T18:34:09;101667.94;;;16.96;71.04
28797;BME280;24974;54.444;18.560;2022-10-16T18:36:40;101669.41;;;16.93;71.25
28797;BME280;24974;54.444;18.560;2022-10-16T18:39:14;101671.34;;;17.10;70.38
28797;BME280;24974;54.444;18.560;2022-10-16T18:41:48;101680.47;;;17.19;70.08
28797;BME280;24974;54.444;18.560;2022-10-16T18:44:21;101677.84;;;17.14;70.20
28797;BME280;24974;54.444;18.560;2022-10-16T18:46:52;101680.81;;;16.92;70.93
28797;BME280;24974;54.444;18.560;2022-10-16T18:49:26;101688.97;;;17.14;69.80
28797;BME280;24974;54.444;18.560;2022-10-16T18:51:58;101687.69;;;17.03;70.01
28797;BME280;24974;54.444;18.560;2022-10-16T18:54:31;101689.75;;;17.23;69.32
28797;BME280;24974;54.444;18.560;2022-10-16T18:57:02;101701.56;;;17.12;70.09
28797;BME280;24974;54.444;18.560;2022-10-16T18:59:33;101707.59;;;17.14;70.12
28797;BME280;24974;54.444;18.560;2022-10-16T19:02:04;101717.91;;;16.87;70.68
28797;BME280;24974;54.444;18.560;2022-10-16T19:04:34;101721.16;;;16.98;70.33
28797;BME280;24974;54.444;18.560;2022-10-16T19:07:06;101711.88;;;16.85;71.01
28797;BME280;24974;54.444;18.560;2022-10-16T19:09:37;101715.91;;;16.53;71.55
28797;BME280;24974;54.444;18.560;2022-10-16T19:12:08;101717.25;;;16.73;70.92
28797;BME280;24974;54.444;18.560;2022-10-16T19:14:39;101722.00;;;16.81;70.53
28797;BME280;24974;54.444;18.560;2022-10-16T19:17:10;101722.00;;;16.72;71.15
28797;BME280;24974;54.444;18.560;2022-10-16T19:19:41;101724.88;;;16.59;71.38
28797;BME280;24974;54.444;18.560;2022-10-16T19:22:12;101726.22;;;16.61;71.59
28797;BME280;24974;54.444;18.560;2022-10-16T19:24:57;101726.00;;;16.32;72.56
28797;BME280;24974;54.444;18.560;2022-10-16T19:27:27;101739.31;;;16.69;71.43
28797;BME280;24974;54.444;18.560;2022-10-16T19:29:58;101731.75;;;16.61;71.68
28797;BME280;24974;54.444;18.560;2022-10-16T19:32:31;101737.94;;;16.49;71.81
28797;BME280;24974;54.444;18.560;2022-10-16T19:35:02;101740.94;;;16.70;71.08
28797;BME280;24974;54.444;18.560;2022-10-16T19:37:32;101749.53;;;16.60;71.50
28797;BME280;24974;54.444;18.560;2022-10-16T19:40:04;101751.31;;;16.47;71.96
28797;BME280;24974;54.444;18.560;2022-10-16T19:42:35;101751.81;;;16.49;71.84
28797;BME280;24974;54.444;18.560;2022-10-16T19:45:06;101760.03;;;16.81;70.86
28797;BME280;24974;54.444;18.560;2022-10-16T19:47:37;101763.56;;;16.55;71.47
28797;BME280;24974;54.444;18.560;2022-10-16T19:50:08;101763.22;;;16.48;71.94
28797;BME280;24974;54.444;18.560;2022-10-16T19:52:39;101758.66;;;16.52;71.53
28797;BME280;24974;54.444;18.560;2022-10-16T19:55:10;101764.28;;;16.78;70.95
28797;BME280;24974;54.444;18.560;2022-10-16T19:57:42;101765.69;;;16.67;71.15
28797;BME280;24974;54.444;18.560;2022-10-16T20:00:13;101778.41;;;16.59;71.57
28797;BME280;24974;54.444;18.560;2022-10-16T20:02:45;101779.59;;;16.10;73.01
28797;BME280;24974;54.444;18.560;2022-10-16T20:05:17;101778.72;;;16.40;72.13
28797;BME280;24974;54.444;18.560;2022-10-16T20:07:48;101779.56;;;16.49;71.89
28797;BME280;24974;54.444;18.560;2022-10-16T20:10:19;101779.06;;;16.47;71.57
28797;BME280;24974;54.444;18.560;2022-10-16T20:12:51;101783.69;;;16.12;72.60
28797;BME280;24974;54.444;18.560;2022-10-16T20:15:21;101789.38;;;16.64;71.20
28797;BME280;24974;54.444;18.560;2022-10-16T20:17:52;101786.09;;;16.54;71.20
